WetterOnline ( https://www.wetteronline.de )

Wetter aktuell Lotte

Aktuelles Wetter: Belm (103m)

6-stündlich | Neueste Meldungen
Ortszeit Temperatur Wetter
Sa, 29.01. 7:00 6.0° C bedeckt
Sa, 29.01. 1:00 5.2° C bedeckt
Fr, 28.01. 19:00 4.0° C bedeckt
Fr, 28.01. 13:00 5.7° C bewölkt
Fr, 28.01. 7:00 3.7° C bewölkt
Fr, 28.01. 1:00 3.9° C wolkig
Do, 27.01. 19:00 5.8° C bewölkt
Do, 27.01. 13:00 6.0° C bedeckt
Ortszeit Temperatur Wetter
Sa, 29.01. 9:00 6.3° C Sprühregen
Sa, 29.01. 8:50 6.3° C Sprühregen
Sa, 29.01. 8:40 6.2° C Sprühregen
Sa, 29.01. 8:30 6.1° C bedeckt
Sa, 29.01. 8:20 6.1° C Dunst
Sa, 29.01. 8:10 6.1° C Dunst
Sa, 29.01. 8:00 6.2° C bedeckt
Sa, 29.01. 7:30 6.1° C bedeckt
Sa, 29.01. 7:00 6.0° C bedeckt
Sa, 29.01. 6:30 5.8° C bedeckt
Sa, 29.01. 6:00 5.6° C bedeckt
Ortszeit Relative Feuchte Sichtweite
Sa, 29.01. 7:00 95% 13 km
Sa, 29.01. 1:00 89% 9 km
Fr, 28.01. 19:00 78% 28 km
Fr, 28.01. 13:00 69% 29 km
Fr, 28.01. 7:00 81% 30 km
Fr, 28.01. 1:00 85% 35 km
Do, 27.01. 19:00 90% 35 km
Do, 27.01. 13:00 96% 14 km
Ortszeit Relative Feuchte Sichtweite
Sa, 29.01. 9:00 99% 2.7 km
Sa, 29.01. 8:50 99% -
Sa, 29.01. 8:40 99% -
Sa, 29.01. 8:30 97% 5.0 km
Sa, 29.01. 8:20 97% -
Sa, 29.01. 8:10 97% -
Sa, 29.01. 8:00 96% 11 km
Sa, 29.01. 7:30 95% 13 km
Sa, 29.01. 7:00 95% 13 km
Sa, 29.01. 6:30 95% 11 km
Sa, 29.01. 6:00 96% 9 km
Ortszeit Niederschlagsmenge Niederschlagsart
Sa, 29.01. 7:00 0.1 l/m2 in 12 Std. Regen
Sa, 29.01. 1:00 0.0 l/m2 in 6 Std. -
Fr, 28.01. 19:00 0.1 l/m2 in 12 Std. -
Fr, 28.01. 13:00 0.1 l/m2 in 6 Std. Regen
Fr, 28.01. 7:00 0.3 l/m2 in 12 Std. Regen
Fr, 28.01. 1:00 0.3 l/m2 in 6 Std. Regen
Do, 27.01. 19:00 3 l/m2 in 12 Std. Regen
Do, 27.01. 13:00 1 l/m2 in 6 Std. Regen
Ortszeit Niederschlagsmenge Niederschlagsart
Sa, 29.01. 9:00 0.1 l/m2 in 1 Std. Regen
Sa, 29.01. 8:50 keine Meldung -
Sa, 29.01. 8:40 keine Meldung -
Sa, 29.01. 8:30 0.0 l/m2 in 1 Std. -
Sa, 29.01. 8:20 keine Meldung -
Sa, 29.01. 8:10 keine Meldung -
Sa, 29.01. 8:00 0.0 l/m2 in 1 Std. -
Sa, 29.01. 7:30 0.0 l/m2 in 1 Std. -
Sa, 29.01. 7:00 0.0 l/m2 in 1 Std. Regen
Sa, 29.01. 6:30 0.0 l/m2 in 1 Std. -
Sa, 29.01. 6:00 0.0 l/m2 in 1 Std. -
Ortszeit Stärke Spitze Richtung
km/h Bft. km/h Grad Sektor
Sa, 29.01. 7:00 32 5 50 240° SW
Sa, 29.01. 1:00 20 4 37 220° SW
Fr, 28.01. 19:00 7 2 32 200° S
Fr, 28.01. 13:00 24 4 35 290° W
Fr, 28.01. 7:00 17 3 48 290° W
Fr, 28.01. 1:00 20 4 56 290° W
Do, 27.01. 19:00 22 4 58 270° W
Do, 27.01. 13:00 24 4 44 250° W
Ortszeit Stärke Spitze Richtung
km/h Bft. km/h Grad Sektor
Sa, 29.01. 9:00 31 5 50 240° SW
Sa, 29.01. 8:50 31 5 - 240° SW
Sa, 29.01. 8:40 28 4 - 240° SW
Sa, 29.01. 8:30 26 4 46 230° SW
Sa, 29.01. 8:20 26 4 - 230° SW
Sa, 29.01. 8:10 28 4 - 230° SW
Sa, 29.01. 8:00 30 5 56 240° SW
Sa, 29.01. 7:30 32 5 54 240° SW
Sa, 29.01. 7:00 32 5 50 240° SW
Sa, 29.01. 6:30 30 5 52 240° SW
Sa, 29.01. 6:00 31 5 48 240° SW
Ortszeit Untergrenze Bedeckung Gattung
total tief tief mittel hoch
Sa, 29.01. 7:00 180 m 8/8 8/8 - - -
Sa, 29.01. 1:00 300 m 8/8 8/8 - - -
Fr, 28.01. 19:00 870 m 8/8 8/8 - - -
Fr, 28.01. 13:00 1170 m 7/8 7/8 - - -
Fr, 28.01. 7:00 1500 m 7/8 7/8 - - -
Fr, 28.01. 1:00 720 m 5/8 5/8 - - -
Do, 27.01. 19:00 570 m 7/8 7/8 - - -
Do, 27.01. 13:00 150 m 8/8 8/8 - - -
Ortszeit Bedeckungsgrad in Achtel und Wolkenuntergrenze
Sa, 29.01. 9:00 8(90m)
Sa, 29.01. 8:50 8(90m)
Sa, 29.01. 8:40 8
Sa, 29.01. 8:30 8(120m)
Sa, 29.01. 8:20 8(120m)
Sa, 29.01. 8:10 8
Sa, 29.01. 8:00 8(150m)
Sa, 29.01. 7:30 8(150m)
Sa, 29.01. 7:00 8(180m)
Sa, 29.01. 6:30 8(150m)
Sa, 29.01. 6:00 8(150m)
Ortszeit Luftdruck NN (hPa) Tendenz (hPa in 3 Std.)
Sa, 29.01. 7:00 1022 - 2,1
Sa, 29.01. 1:00 1028 - 2,4
Fr, 28.01. 19:00 1032 - 0,5
Fr, 28.01. 13:00 1033 + 1,0
Fr, 28.01. 7:00 1029 + 2,4
Fr, 28.01. 1:00 1024 + 1,9
Do, 27.01. 19:00 1020 + 1,5
Do, 27.01. 13:00 1019 - 0,6
Ortszeit Luftdruck NN (hPa) Tendenz (hPa in 3 Std.)
Sa, 29.01. 9:00 1021 - 1,5
Sa, 29.01. 8:50 1021 keine Meldung
Sa, 29.01. 8:40 1022 keine Meldung
Sa, 29.01. 8:30 1022 - 1,5
Sa, 29.01. 8:20 1022 keine Meldung
Sa, 29.01. 8:10 1022 keine Meldung
Sa, 29.01. 8:00 1022 - 1,7
Sa, 29.01. 7:30 1022 - 1,8
Sa, 29.01. 7:00 1022 - 2,1
Sa, 29.01. 6:30 1022 - 2,6
Sa, 29.01. 6:00 1023 - 2,7
Ortszeit Schneehöhe (cm)
Sa, 29.01. 7:00 0
Sa, 29.01. 1:00 0
Fr, 28.01. 19:00 0
Fr, 28.01. 13:00 0
Fr, 28.01. 7:00 0
Fr, 28.01. 1:00 0
Do, 27.01. 19:00 0
Do, 27.01. 13:00 0
Ortszeit Schneehöhe (cm)
Sa, 29.01. 9:00 0
Sa, 29.01. 8:50 0
Sa, 29.01. 8:40 0
Sa, 29.01. 8:30 0
Sa, 29.01. 8:20 0
Sa, 29.01. 8:10 0
Sa, 29.01. 8:00 0
Sa, 29.01. 7:30 0
Sa, 29.01. 7:00 0
Sa, 29.01. 6:30 0
Sa, 29.01. 6:00 0
Link zu dieser Seite / Seite empfehlen

Das Wetter in ...